sensor_id;sensor_type;location;lat;lon;timestamp;temperature;humidity
34492;DHT22;20737;49.908;8.126;2023-05-10T00:02:07;13.30;99.90
34492;DHT22;20737;49.908;8.126;2023-05-10T00:04:34;13.30;99.90
34492;DHT22;20737;49.908;8.126;2023-05-10T00:07:01;13.30;99.90
34492;DHT22;20737;49.908;8.126;2023-05-10T00:09:29;13.30;99.90
34492;DHT22;20737;49.908;8.126;2023-05-10T00:11:56;13.30;99.90
34492;DHT22;20737;49.908;8.126;2023-05-10T00:14:23;13.30;99.90
34492;DHT22;20737;49.908;8.126;2023-05-10T00:16:50;13.30;99.90
34492;DHT22;20737;49.908;8.126;2023-05-10T00:19:17;13.30;99.90
34492;DHT22;20737;49.908;8.126;2023-05-10T00:21:44;13.40;99.90
34492;DHT22;20737;49.908;8.126;2023-05-10T00:24:10;13.30;99.90
34492;DHT22;20737;49.908;8.126;2023-05-10T00:26:38;13.30;99.90
34492;DHT22;20737;49.908;8.126;2023-05-10T00:29:06;13.30;99.90
34492;DHT22;20737;49.908;8.126;2023-05-10T00:31:33;13.30;99.90
34492;DHT22;20737;49.908;8.126;2023-05-10T00:33:59;13.30;99.90
34492;DHT22;20737;49.908;8.126;2023-05-10T00:36:26;13.20;99.90
34492;DHT22;20737;49.908;8.126;2023-05-10T00:38:53;13.20;99.90
34492;DHT22;20737;49.908;8.126;2023-05-10T00:41:20;13.20;99.90
34492;DHT22;20737;49.908;8.126;2023-05-10T00:43:48;13.20;99.90
34492;DHT22;20737;49.908;8.126;2023-05-10T00:46:15;13.20;99.90
34492;DHT22;20737;49.908;8.126;2023-05-10T00:48:43;13.20;99.90
34492;DHT22;20737;49.908;8.126;2023-05-10T00:51:10;13.20;99.90
34492;DHT22;20737;49.908;8.126;2023-05-10T00:53:40;13.20;99.90
34492;DHT22;20737;49.908;8.126;2023-05-10T00:56:07;13.20;99.90
34492;DHT22;20737;49.908;8.126;2023-05-10T00:58:34;13.20;99.90
34492;DHT22;20737;49.908;8.126;2023-05-10T01:01:04;13.20;99.90
34492;DHT22;20737;49.908;8.126;2023-05-10T01:03:31;13.20;99.90
34492;DHT22;20737;49.908;8.126;2023-05-10T01:05:58;13.20;99.90
34492;DHT22;20737;49.908;8.126;2023-05-10T01:08:29;13.20;99.90
34492;DHT22;20737;49.908;8.126;2023-05-10T01:10:56;13.20;99.90
34492;DHT22;20737;49.908;8.126;2023-05-10T01:13:31;13.20;99.90
34492;DHT22;20737;49.908;8.126;2023-05-10T01:15:59;13.10;99.90
34492;DHT22;20737;49.908;8.126;2023-05-10T01:18:29;13.10;99.90
34492;DHT22;20737;49.908;8.126;2023-05-10T01:21:04;13.10;99.90
34492;DHT22;20737;49.908;8.126;2023-05-10T01:23:51;13.10;99.90
34492;DHT22;20737;49.908;8.126;2023-05-10T01:26:54;13.10;99.90
34492;DHT22;20737;49.908;8.126;2023-05-10T01:29:55;13.10;99.90
34492;DHT22;20737;49.908;8.126;2023-05-10T01:32:30;13.10;99.90
34492;DHT22;20737;49.908;8.126;2023-05-10T01:35:02;13.10;99.90
34492;DHT22;20737;49.908;8.126;2023-05-10T01:37:35;13.10;99.90
34492;DHT22;20737;49.908;8.126;2023-05-10T01:40:10;13.10;99.90
34492;DHT22;20737;49.908;8.126;2023-05-10T01:42:45;13.10;99.90
34492;DHT22;20737;49.908;8.126;2023-05-10T01:45:20;13.10;99.90
34492;DHT22;20737;49.908;8.126;2023-05-10T01:47:57;13.10;99.90
34492;DHT22;20737;49.908;8.126;2023-05-10T01:50:28;13.10;99.90
34492;DHT22;20737;49.908;8.126;2023-05-10T01:52:58;13.10;99.90
34492;DHT22;20737;49.908;8.126;2023-05-10T01:55:28;13.10;99.90
34492;DHT22;20737;49.908;8.126;2023-05-10T01:58:01;13.10;99.90
34492;DHT22;20737;49.908;8.126;2023-05-10T02:00:29;13.10;99.90
34492;DHT22;20737;49.908;8.126;2023-05-10T02:02:59;13.10;99.90
34492;DHT22;20737;49.908;8.126;2023-05-10T02:05:29;13.10;99.90
34492;DHT22;20737;49.908;8.126;2023-05-10T02:07:57;13.10;99.90
34492;DHT22;20737;49.908;8.126;2023-05-10T02:10:24;13.10;99.90
34492;DHT22;20737;49.908;8.126;2023-05-10T02:12:55;13.10;99.90
34492;DHT22;20737;49.908;8.126;2023-05-10T02:15:25;13.10;99.90
34492;DHT22;20737;49.908;8.126;2023-05-10T02:17:54;13.10;99.90
34492;DHT22;20737;49.908;8.126;2023-05-10T02:20:24;13.10;99.90
34492;DHT22;20737;49.908;8.126;2023-05-10T02:22:53;13.10;99.90
34492;DHT22;20737;49.908;8.126;2023-05-10T02:25:22;13.10;99.90
34492;DHT22;20737;49.908;8.126;2023-05-10T02:27:50;13.00;99.90
34492;DHT22;20737;49.908;8.126;2023-05-10T02:30:18;13.10;99.90
34492;DHT22;20737;49.908;8.126;2023-05-10T02:32:46;13.10;99.90
34492;DHT22;20737;49.908;8.126;2023-05-10T02:35:14;13.10;99.90
34492;DHT22;20737;49.908;8.126;2023-05-10T02:37:46;13.10;99.90
34492;DHT22;20737;49.908;8.126;2023-05-10T02:40:15;13.10;99.90
34492;DHT22;20737;49.908;8.126;2023-05-10T02:42:44;13.10;99.90
34492;DHT22;20737;49.908;8.126;2023-05-10T02:45:17;13.10;99.90
34492;DHT22;20737;49.908;8.126;2023-05-10T02:47:44;13.10;99.90
34492;DHT22;20737;49.908;8.126;2023-05-10T02:50:11;13.10;99.90
34492;DHT22;20737;49.908;8.126;2023-05-10T02:52:40;13.00;99.90
34492;DHT22;20737;49.908;8.126;2023-05-10T02:55:14;13.10;99.90
34492;DHT22;20737;49.908;8.126;2023-05-10T02:57:48;13.10;99.90
34492;DHT22;20737;49.908;8.126;2023-05-10T03:00:15;13.10;99.90
34492;DHT22;20737;49.908;8.126;2023-05-10T03:02:42;13.10;99.90
34492;DHT22;20737;49.908;8.126;2023-05-10T03:05:09;13.10;99.90
34492;DHT22;20737;49.908;8.126;2023-05-10T03:07:36;13.00;99.90
34492;DHT22;20737;49.908;8.126;2023-05-10T03:10:06;13.10;99.90
34492;DHT22;20737;49.908;8.126;2023-05-10T03:12:42;13.00;99.90
34492;DHT22;20737;49.908;8.126;2023-05-10T03:15:14;13.00;99.90
34492;DHT22;20737;49.908;8.126;2023-05-10T03:17:47;13.10;99.90
34492;DHT22;20737;49.908;8.126;2023-05-10T03:20:22;13.10;99.90
34492;DHT22;20737;49.908;8.126;2023-05-10T03:22:53;13.10;99.90
34492;DHT22;20737;49.908;8.126;2023-05-10T03:25:23;13.10;99.90
34492;DHT22;20737;49.908;8.126;2023-05-10T03:27:52;13.10;99.90
34492;DHT22;20737;49.908;8.126;2023-05-10T03:30:19;13.10;99.90
34492;DHT22;20737;49.908;8.126;2023-05-10T03:32:46;13.10;99.90
34492;DHT22;20737;49.908;8.126;2023-05-10T03:35:14;13.20;99.90
34492;DHT22;20737;49.908;8.126;2023-05-10T03:37:49;13.10;99.90
34492;DHT22;20737;49.908;8.126;2023-05-10T03:40:16;13.10;99.90
34492;DHT22;20737;49.908;8.126;2023-05-10T03:42:42;13.10;99.90
34492;DHT22;20737;49.908;8.126;2023-05-10T03:45:11;13.10;99.90
34492;DHT22;20737;49.908;8.126;2023-05-10T03:47:38;13.20;99.90
34492;DHT22;20737;49.908;8.126;2023-05-10T03:50:06;13.10;99.90
34492;DHT22;20737;49.908;8.126;2023-05-10T03:52:33;13.10;99.90
34492;DHT22;20737;49.908;8.126;2023-05-10T03:54:59;13.10;99.90
34492;DHT22;20737;49.908;8.126;2023-05-10T03:57:28;13.10;99.90
34492;DHT22;20737;49.908;8.126;2023-05-10T03:59:55;13.10;99.90
34492;DHT22;20737;49.908;8.126;2023-05-10T04:02:23;13.10;99.90
34492;DHT22;20737;49.908;8.126;2023-05-10T04:04:50;13.10;99.90
34492;DHT22;20737;49.908;8.126;2023-05-10T04:07:16;13.10;99.90
34492;DHT22;20737;49.908;8.126;2023-05-10T04:09:43;13.10;99.90
34492;DHT22;20737;49.908;8.126;2023-05-10T04:12:13;13.20;99.90
34492;DHT22;20737;49.908;8.126;2023-05-10T04:14:39;13.20;99.90
34492;DHT22;20737;49.908;8.126;2023-05-10T04:17:06;13.20;99.90
34492;DHT22;20737;49.908;8.126;2023-05-10T04:19:34;13.20;99.90
34492;DHT22;20737;49.908;8.126;2023-05-10T04:22:02;13.20;99.90
34492;DHT22;20737;49.908;8.126;2023-05-10T04:24:29;13.20;99.90
34492;DHT22;20737;49.908;8.126;2023-05-10T04:26:56;13.20;99.90
34492;DHT22;20737;49.908;8.126;2023-05-10T04:29:22;13.20;99.90
34492;DHT22;20737;49.908;8.126;2023-05-10T04:31:49;13.20;99.90
34492;DHT22;20737;49.908;8.126;2023-05-10T04:34:16;13.20;99.90
34492;DHT22;20737;49.908;8.126;2023-05-10T04:36:45;13.20;99.90
34492;DHT22;20737;49.908;8.126;2023-05-10T04:39:12;13.20;99.90
34492;DHT22;20737;49.908;8.126;2023-05-10T04:41:39;13.20;99.90
34492;DHT22;20737;49.908;8.126;2023-05-10T04:44:07;13.10;99.90
34492;DHT22;20737;49.908;8.126;2023-05-10T04:46:34;13.20;99.90
34492;DHT22;20737;49.908;8.126;2023-05-10T04:49:02;13.20;99.90
34492;DHT22;20737;49.908;8.126;2023-05-10T04:51:29;13.20;99.90
34492;DHT22;20737;49.908;8.126;2023-05-10T04:53:58;13.20;99.90
34492;DHT22;20737;49.908;8.126;2023-05-10T04:56:24;13.10;99.90
34492;DHT22;20737;49.908;8.126;2023-05-10T04:58:51;13.10;99.90
34492;DHT22;20737;49.908;8.126;2023-05-10T05:01:18;13.10;99.90
34492;DHT22;20737;49.908;8.126;2023-05-10T05:03:44;13.20;99.90
34492;DHT22;20737;49.908;8.126;2023-05-10T05:06:11;13.20;99.90
34492;DHT22;20737;49.908;8.126;2023-05-10T05:08:42;13.10;99.90
34492;DHT22;20737;49.908;8.126;2023-05-10T05:11:10;13.10;99.90
34492;DHT22;20737;49.908;8.126;2023-05-10T05:13:36;13.20;99.90
34492;DHT22;20737;49.908;8.126;2023-05-10T05:16:05;13.20;99.90
34492;DHT22;20737;49.908;8.126;2023-05-10T05:18:31;13.20;99.90
34492;DHT22;20737;49.908;8.126;2023-05-10T05:20:58;13.30;99.90
34492;DHT22;20737;49.908;8.126;2023-05-10T05:23:25;13.50;99.90
34492;DHT22;20737;49.908;8.126;2023-05-10T05:25:52;13.70;99.90
34492;DHT22;20737;49.908;8.126;2023-05-10T05:28:21;14.00;99.90
34492;DHT22;20737;49.908;8.126;2023-05-10T05:30:48;14.20;99.90
34492;DHT22;20737;49.908;8.126;2023-05-10T05:33:15;14.40;99.90
34492;DHT22;20737;49.908;8.126;2023-05-10T05:35:42;14.50;99.90
34492;DHT22;20737;49.908;8.126;2023-05-10T05:38:12;14.60;99.90
34492;DHT22;20737;49.908;8.126;2023-05-10T05:40:39;14.60;99.90
34492;DHT22;20737;49.908;8.126;2023-05-10T05:43:06;14.70;99.90
34492;DHT22;20737;49.908;8.126;2023-05-10T05:45:34;14.80;99.90
34492;DHT22;20737;49.908;8.126;2023-05-10T05:48:01;14.80;99.90
34492;DHT22;20737;49.908;8.126;2023-05-10T05:50:27;14.80;99.90
34492;DHT22;20737;49.908;8.126;2023-05-10T05:52:54;14.80;99.90
34492;DHT22;20737;49.908;8.126;2023-05-10T05:55:22;15.00;99.90
34492;DHT22;20737;49.908;8.126;2023-05-10T05:57:51;15.00;99.90
34492;DHT22;20737;49.908;8.126;2023-05-10T06:00:19;15.10;99.90
34492;DHT22;20737;49.908;8.126;2023-05-10T06:02:48;15.20;99.90
34492;DHT22;20737;49.908;8.126;2023-05-10T06:05:14;15.10;99.90
34492;DHT22;20737;49.908;8.126;2023-05-10T06:07:41;15.50;99.90
34492;DHT22;20737;49.908;8.126;2023-05-10T06:10:08;15.70;99.90
34492;DHT22;20737;49.908;8.126;2023-05-10T06:12:37;16.00;99.90
34492;DHT22;20737;49.908;8.126;2023-05-10T06:15:04;16.40;99.90
34492;DHT22;20737;49.908;8.126;2023-05-10T06:17:31;16.50;99.90
34492;DHT22;20737;49.908;8.126;2023-05-10T06:19:59;16.50;99.90
34492;DHT22;20737;49.908;8.126;2023-05-10T06:22:25;16.60;99.90
34492;DHT22;20737;49.908;8.126;2023-05-10T06:24:52;16.50;99.90
34492;DHT22;20737;49.908;8.126;2023-05-10T06:27:19;16.70;99.90
34492;DHT22;20737;49.908;8.126;2023-05-10T06:29:45;16.80;99.90
34492;DHT22;20737;49.908;8.126;2023-05-10T06:32:12;16.90;99.90
34492;DHT22;20737;49.908;8.126;2023-05-10T06:34:39;17.00;99.90
34492;DHT22;20737;49.908;8.126;2023-05-10T06:37:07;17.70;99.90
34492;DHT22;20737;49.908;8.126;2023-05-10T06:39:34;18.70;99.90
34492;DHT22;20737;49.908;8.126;2023-05-10T06:42:00;18.60;99.90
34492;DHT22;20737;49.908;8.126;2023-05-10T06:44:29;18.10;99.90
34492;DHT22;20737;49.908;8.126;2023-05-10T06:46:56;18.20;99.90
34492;DHT22;20737;49.908;8.126;2023-05-10T06:49:23;18.10;99.90
34492;DHT22;20737;49.908;8.126;2023-05-10T06:51:50;18.00;99.90
34492;DHT22;20737;49.908;8.126;2023-05-10T06:54:18;19.50;99.90
34492;DHT22;20737;49.908;8.126;2023-05-10T06:56:45;19.90;99.90
34492;DHT22;20737;49.908;8.126;2023-05-10T06:59:12;19.50;99.90
34492;DHT22;20737;49.908;8.126;2023-05-10T07:01:38;20.10;99.90
34492;DHT22;20737;49.908;8.126;2023-05-10T07:04:05;21.00;99.90
34492;DHT22;20737;49.908;8.126;2023-05-10T07:06:34;21.60;99.90
34492;DHT22;20737;49.908;8.126;2023-05-10T07:09:01;21.20;99.90
34492;DHT22;20737;49.908;8.126;2023-05-10T07:11:29;20.50;99.90
34492;DHT22;20737;49.908;8.126;2023-05-10T07:13:56;20.00;99.90
34492;DHT22;20737;49.908;8.126;2023-05-10T07:16:24;20.00;99.90
34492;DHT22;20737;49.908;8.126;2023-05-10T07:18:51;20.50;99.90
34492;DHT22;20737;49.908;8.126;2023-05-10T07:21:18;20.10;99.90
34492;DHT22;20737;49.908;8.126;2023-05-10T07:23:45;19.50;99.90
34492;DHT22;20737;49.908;8.126;2023-05-10T07:26:12;18.90;99.90
34492;DHT22;20737;49.908;8.126;2023-05-10T07:28:41;18.60;99.90
34492;DHT22;20737;49.908;8.126;2023-05-10T07:31:08;18.20;99.90
34492;DHT22;20737;49.908;8.126;2023-05-10T07:33:41;18.10;99.90
34492;DHT22;20737;49.908;8.126;2023-05-10T07:36:08;18.00;99.90
34492;DHT22;20737;49.908;8.126;2023-05-10T07:38:35;17.70;99.90
34492;DHT22;20737;49.908;8.126;2023-05-10T07:41:01;17.30;99.90
34492;DHT22;20737;49.908;8.126;2023-05-10T07:43:28;17.40;99.90
34492;DHT22;20737;49.908;8.126;2023-05-10T07:45:56;17.40;99.90
34492;DHT22;20737;49.908;8.126;2023-05-10T07:48:25;17.30;99.90
34492;DHT22;20737;49.908;8.126;2023-05-10T07:50:52;17.40;99.90
34492;DHT22;20737;49.908;8.126;2023-05-10T07:53:18;17.50;99.90
34492;DHT22;20737;49.908;8.126;2023-05-10T07:55:50;17.60;99.90
34492;DHT22;20737;49.908;8.126;2023-05-10T07:58:17;17.80;99.90
34492;DHT22;20737;49.908;8.126;2023-05-10T08:00:43;17.60;99.90
34492;DHT22;20737;49.908;8.126;2023-05-10T08:03:11;17.60;99.90
34492;DHT22;20737;49.908;8.126;2023-05-10T08:05:38;17.60;99.90
34492;DHT22;20737;49.908;8.126;2023-05-10T08:08:05;17.70;99.90
34492;DHT22;20737;49.908;8.126;2023-05-10T08:10:32;17.80;99.90
34492;DHT22;20737;49.908;8.126;2023-05-10T08:12:58;17.80;99.90
34492;DHT22;20737;49.908;8.126;2023-05-10T08:15:25;17.70;99.90
34492;DHT22;20737;49.908;8.126;2023-05-10T08:17:52;17.50;99.90
34492;DHT22;20737;49.908;8.126;2023-05-10T08:20:21;17.30;99.90
34492;DHT22;20737;49.908;8.126;2023-05-10T08:22:47;17.30;99.90
34492;DHT22;20737;49.908;8.126;2023-05-10T08:25:15;17.50;99.90
34492;DHT22;20737;49.908;8.126;2023-05-10T08:27:42;17.60;99.90
34492;DHT22;20737;49.908;8.126;2023-05-10T08:30:09;17.50;99.90
34492;DHT22;20737;49.908;8.126;2023-05-10T08:32:36;17.50;99.90
34492;DHT22;20737;49.908;8.126;2023-05-10T08:35:03;17.40;99.90
34492;DHT22;20737;49.908;8.126;2023-05-10T08:37:34;17.30;99.90
34492;DHT22;20737;49.908;8.126;2023-05-10T08:40:01;17.00;99.90
34492;DHT22;20737;49.908;8.126;2023-05-10T08:42:30;16.80;99.90
34492;DHT22;20737;49.908;8.126;2023-05-10T08:45:03;16.70;99.90
34492;DHT22;20737;49.908;8.126;2023-05-10T08:47:31;16.90;99.90
34492;DHT22;20737;49.908;8.126;2023-05-10T08:49:58;17.30;99.90
34492;DHT22;20737;49.908;8.126;2023-05-10T08:52:26;17.60;99.90
34492;DHT22;20737;49.908;8.126;2023-05-10T08:54:56;17.90;99.90
34492;DHT22;20737;49.908;8.126;2023-05-10T08:57:23;18.20;99.90
34492;DHT22;20737;49.908;8.126;2023-05-10T08:59:50;18.80;99.90
34492;DHT22;20737;49.908;8.126;2023-05-10T09:02:18;20.40;99.90
34492;DHT22;20737;49.908;8.126;2023-05-10T09:04:46;21.00;99.90
34492;DHT22;20737;49.908;8.126;2023-05-10T09:07:14;21.70;99.90
34492;DHT22;20737;49.908;8.126;2023-05-10T09:09:41;21.80;99.90
34492;DHT22;20737;49.908;8.126;2023-05-10T09:12:09;21.80;99.90
34492;DHT22;20737;49.908;8.126;2023-05-10T09:14:38;21.50;99.90
34492;DHT22;20737;49.908;8.126;2023-05-10T09:17:05;21.30;99.90
34492;DHT22;20737;49.908;8.126;2023-05-10T09:19:31;20.50;99.90
34492;DHT22;20737;49.908;8.126;2023-05-10T09:21:58;19.60;99.90
34492;DHT22;20737;49.908;8.126;2023-05-10T09:24:26;19.60;99.90
34492;DHT22;20737;49.908;8.126;2023-05-10T09:26:53;19.90;99.90
34492;DHT22;20737;49.908;8.126;2023-05-10T09:29:21;20.80;99.90
34492;DHT22;20737;49.908;8.126;2023-05-10T09:31:49;21.40;99.90
34492;DHT22;20737;49.908;8.126;2023-05-10T09:34:18;22.40;99.90
34492;DHT22;20737;49.908;8.126;2023-05-10T09:36:53;22.70;99.90
34492;DHT22;20737;49.908;8.126;2023-05-10T09:39:20;22.30;99.90
34492;DHT22;20737;49.908;8.126;2023-05-10T09:41:47;22.00;99.90
34492;DHT22;20737;49.908;8.126;2023-05-10T09:44:17;21.40;99.90
34492;DHT22;20737;49.908;8.126;2023-05-10T09:46:50;21.00;99.90
34492;DHT22;20737;49.908;8.126;2023-05-10T09:49:18;20.10;99.90
34492;DHT22;20737;49.908;8.126;2023-05-10T09:51:44;19.10;99.90
34492;DHT22;20737;49.908;8.126;2023-05-10T09:54:12;18.80;99.90
34492;DHT22;20737;49.908;8.126;2023-05-10T09:56:40;18.50;99.90
34492;DHT22;20737;49.908;8.126;2023-05-10T09:59:08;17.90;99.90
34492;DHT22;20737;49.908;8.126;2023-05-10T10:01:35;17.60;99.90
34492;DHT22;20737;49.908;8.126;2023-05-10T10:04:04;17.40;99.90
34492;DHT22;20737;49.908;8.126;2023-05-10T10:06:35;17.30;99.90
34492;DHT22;20737;49.908;8.126;2023-05-10T10:09:03;17.30;99.90
34492;DHT22;20737;49.908;8.126;2023-05-10T10:11:30;17.30;99.90
34492;DHT22;20737;49.908;8.126;2023-05-10T10:13:58;17.30;99.90
34492;DHT22;20737;49.908;8.126;2023-05-10T10:16:25;17.30;99.90
34492;DHT22;20737;49.908;8.126;2023-05-10T10:18:52;17.30;99.90
34492;DHT22;20737;49.908;8.126;2023-05-10T10:21:21;17.30;99.90
34492;DHT22;20737;49.908;8.126;2023-05-10T10:23:48;17.40;99.90
34492;DHT22;20737;49.908;8.126;2023-05-10T10:26:15;17.50;99.90
34492;DHT22;20737;49.908;8.126;2023-05-10T10:28:50;17.60;99.90
34492;DHT22;20737;49.908;8.126;2023-05-10T10:31:26;17.40;99.90
34492;DHT22;20737;49.908;8.126;2023-05-10T10:33:59;17.40;99.90
34492;DHT22;20737;49.908;8.126;2023-05-10T10:36:30;17.30;99.90
34492;DHT22;20737;49.908;8.126;2023-05-10T10:38:59;17.20;99.90
34492;DHT22;20737;49.908;8.126;2023-05-10T10:41:32;17.20;99.90
34492;DHT22;20737;49.908;8.126;2023-05-10T10:44:24;17.40;99.90
34492;DHT22;20737;49.908;8.126;2023-05-10T10:46:59;17.10;99.90
34492;DHT22;20737;49.908;8.126;2023-05-10T10:49:28;17.20;99.90
34492;DHT22;20737;49.908;8.126;2023-05-10T10:52:22;17.40;99.90
34492;DHT22;20737;49.908;8.126;2023-05-10T10:54:52;17.50;99.90
34492;DHT22;20737;49.908;8.126;2023-05-10T10:57:20;17.80;99.90
34492;DHT22;20737;49.908;8.126;2023-05-10T10:59:48;18.20;99.90
34492;DHT22;20737;49.908;8.126;2023-05-10T11:02:33;18.50;99.90
34492;DHT22;20737;49.908;8.126;2023-05-10T11:05:09;18.80;99.90
34492;DHT22;20737;49.908;8.126;2023-05-10T11:07:54;19.10;99.90
34492;DHT22;20737;49.908;8.126;2023-05-10T11:10:21;19.50;99.90
34492;DHT22;20737;49.908;8.126;2023-05-10T11:12:52;19.40;99.90
34492;DHT22;20737;49.908;8.126;2023-05-10T11:15:19;19.70;99.90
34492;DHT22;20737;49.908;8.126;2023-05-10T11:17:48;20.40;99.90
34492;DHT22;20737;49.908;8.126;2023-05-10T11:20:17;20.80;99.90
34492;DHT22;20737;49.908;8.126;2023-05-10T11:22:53;20.80;99.90
34492;DHT22;20737;49.908;8.126;2023-05-10T11:25:23;21.60;99.90
34492;DHT22;20737;49.908;8.126;2023-05-10T11:27:52;22.50;99.90
34492;DHT22;20737;49.908;8.126;2023-05-10T11:30:19;23.00;99.90
34492;DHT22;20737;49.908;8.126;2023-05-10T11:32:46;23.30;99.90
34492;DHT22;20737;49.908;8.126;2023-05-10T11:35:13;23.30;99.90
34492;DHT22;20737;49.908;8.126;2023-05-10T11:37:41;23.80;99.30
34492;DHT22;20737;49.908;8.126;2023-05-10T11:40:11;23.10;99.40
34492;DHT22;20737;49.908;8.126;2023-05-10T11:42:38;23.00;99.90
34492;DHT22;20737;49.908;8.126;2023-05-10T11:45:06;23.30;99.30
34492;DHT22;20737;49.908;8.126;2023-05-10T11:47:33;23.60;98.40
34492;DHT22;20737;49.908;8.126;2023-05-10T11:50:02;22.60;99.60
34492;DHT22;20737;49.908;8.126;2023-05-10T11:52:35;21.80;99.90
34492;DHT22;20737;49.908;8.126;2023-05-10T11:55:02;20.80;99.90
34492;DHT22;20737;49.908;8.126;2023-05-10T11:57:31;19.90;99.90
34492;DHT22;20737;49.908;8.126;2023-05-10T11:59:58;19.30;99.90
34492;DHT22;20737;49.908;8.126;2023-05-10T12:02:25;18.80;99.90
34492;DHT22;20737;49.908;8.126;2023-05-10T12:04:52;18.50;99.90
34492;DHT22;20737;49.908;8.126;2023-05-10T12:07:18;18.40;99.90
34492;DHT22;20737;49.908;8.126;2023-05-10T12:10:07;18.30;99.90
34492;DHT22;20737;49.908;8.126;2023-05-10T12:12:39;18.30;99.90
34492;DHT22;20737;49.908;8.126;2023-05-10T12:15:11;18.50;99.90
34492;DHT22;20737;49.908;8.126;2023-05-10T12:17:38;18.50;99.90
34492;DHT22;20737;49.908;8.126;2023-05-10T12:20:19;18.50;99.90
34492;DHT22;20737;49.908;8.126;2023-05-10T12:22:51;18.80;99.90
34492;DHT22;20737;49.908;8.126;2023-05-10T12:25:18;19.10;99.90
34492;DHT22;20737;49.908;8.126;2023-05-10T12:27:51;19.10;99.90
34492;DHT22;20737;49.908;8.126;2023-05-10T12:30:22;19.50;99.90
34492;DHT22;20737;49.908;8.126;2023-05-10T12:32:49;19.60;99.90
34492;DHT22;20737;49.908;8.126;2023-05-10T12:35:16;19.80;99.90
34492;DHT22;20737;49.908;8.126;2023-05-10T12:37:46;20.10;99.90
34492;DHT22;20737;49.908;8.126;2023-05-10T12:40:13;20.10;99.90
34492;DHT22;20737;49.908;8.126;2023-05-10T12:42:40;20.10;99.90
34492;DHT22;20737;49.908;8.126;2023-05-10T12:45:09;20.00;99.90
34492;DHT22;20737;49.908;8.126;2023-05-10T12:47:36;20.50;99.90
34492;DHT22;20737;49.908;8.126;2023-05-10T12:50:04;20.50;99.90
34492;DHT22;20737;49.908;8.126;2023-05-10T12:52:32;20.50;99.90
34492;DHT22;20737;49.908;8.126;2023-05-10T12:54:59;20.80;99.90
34492;DHT22;20737;49.908;8.126;2023-05-10T12:57:26;21.00;99.90
34492;DHT22;20737;49.908;8.126;2023-05-10T12:59:54;21.30;99.90
34492;DHT22;20737;49.908;8.126;2023-05-10T13:02:22;21.80;99.90
34492;DHT22;20737;49.908;8.126;2023-05-10T13:04:49;22.30;99.90
34492;DHT22;20737;49.908;8.126;2023-05-10T13:07:16;23.00;99.90
34492;DHT22;20737;49.908;8.126;2023-05-10T13:09:43;22.90;99.90
34492;DHT22;20737;49.908;8.126;2023-05-10T13:12:09;22.80;99.90
34492;DHT22;20737;49.908;8.126;2023-05-10T13:14:36;22.70;99.90
34492;DHT22;20737;49.908;8.126;2023-05-10T13:17:03;22.20;99.90
34492;DHT22;20737;49.908;8.126;2023-05-10T13:19:31;21.90;99.90
34492;DHT22;20737;49.908;8.126;2023-05-10T13:21:58;22.00;99.90
34492;DHT22;20737;49.908;8.126;2023-05-10T13:24:25;22.20;99.90
34492;DHT22;20737;49.908;8.126;2023-05-10T13:26:51;22.60;99.90
34492;DHT22;20737;49.908;8.126;2023-05-10T13:29:18;22.40;99.90
34492;DHT22;20737;49.908;8.126;2023-05-10T13:31:46;22.00;99.90
34492;DHT22;20737;49.908;8.126;2023-05-10T13:34:13;21.70;99.90
34492;DHT22;20737;49.908;8.126;2023-05-10T13:36:41;21.40;99.90
34492;DHT22;20737;49.908;8.126;2023-05-10T13:39:08;20.90;99.90
34492;DHT22;20737;49.908;8.126;2023-05-10T13:41:34;21.00;99.90
34492;DHT22;20737;49.908;8.126;2023-05-10T13:44:02;21.60;99.90
34492;DHT22;20737;49.908;8.126;2023-05-10T13:46:29;21.60;99.90
34492;DHT22;20737;49.908;8.126;2023-05-10T13:48:56;22.00;99.90
34492;DHT22;20737;49.908;8.126;2023-05-10T13:51:23;22.50;99.90
34492;DHT22;20737;49.908;8.126;2023-05-10T13:53:51;22.30;99.90
34492;DHT22;20737;49.908;8.126;2023-05-10T13:56:18;22.00;99.90
34492;DHT22;20737;49.908;8.126;2023-05-10T13:58:44;21.90;99.90
34492;DHT22;20737;49.908;8.126;2023-05-10T14:01:11;21.80;99.90
34492;DHT22;20737;49.908;8.126;2023-05-10T14:03:38;21.80;99.90
34492;DHT22;20737;49.908;8.126;2023-05-10T14:06:05;21.60;99.90
34492;DHT22;20737;49.908;8.126;2023-05-10T14:08:32;21.90;99.90
34492;DHT22;20737;49.908;8.126;2023-05-10T14:11:07;22.10;99.90
34492;DHT22;20737;49.908;8.126;2023-05-10T14:13:41;22.30;99.90
34492;DHT22;20737;49.908;8.126;2023-05-10T14:16:08;22.30;99.90
34492;DHT22;20737;49.908;8.126;2023-05-10T14:18:40;22.20;99.90
34492;DHT22;20737;49.908;8.126;2023-05-10T14:21:07;22.30;99.90
34492;DHT22;20737;49.908;8.126;2023-05-10T14:23:33;22.60;99.90
34492;DHT22;20737;49.908;8.126;2023-05-10T14:26:00;22.60;99.90
34492;DHT22;20737;49.908;8.126;2023-05-10T14:28:29;22.30;99.90
34492;DHT22;20737;49.908;8.126;2023-05-10T14:30:56;22.20;99.90
34492;DHT22;20737;49.908;8.126;2023-05-10T14:33:24;22.00;99.90
34492;DHT22;20737;49.908;8.126;2023-05-10T14:35:51;22.30;99.90
34492;DHT22;20737;49.908;8.126;2023-05-10T14:38:17;21.80;99.70
34492;DHT22;20737;49.908;8.126;2023-05-10T14:40:44;21.50;99.90
34492;DHT22;20737;49.908;8.126;2023-05-10T14:43:11;21.30;99.90
34492;DHT22;20737;49.908;8.126;2023-05-10T14:45:39;21.30;99.90
34492;DHT22;20737;49.908;8.126;2023-05-10T14:48:06;21.00;99.90
34492;DHT22;20737;49.908;8.126;2023-05-10T14:50:36;20.90;99.90
34492;DHT22;20737;49.908;8.126;2023-05-10T14:53:03;21.00;99.90
34492;DHT22;20737;49.908;8.126;2023-05-10T14:55:30;20.90;99.90
34492;DHT22;20737;49.908;8.126;2023-05-10T14:57:58;20.80;99.90
34492;DHT22;20737;49.908;8.126;2023-05-10T15:00:27;21.00;99.90
34492;DHT22;20737;49.908;8.126;2023-05-10T15:02:55;21.20;99.90
34492;DHT22;20737;49.908;8.126;2023-05-10T15:05:22;20.90;99.90
34492;DHT22;20737;49.908;8.126;2023-05-10T15:07:49;20.70;99.90
34492;DHT22;20737;49.908;8.126;2023-05-10T15:10:16;20.90;99.90
34492;DHT22;20737;49.908;8.126;2023-05-10T15:12:43;20.90;99.90
34492;DHT22;20737;49.908;8.126;2023-05-10T15:15:09;20.80;99.90
34492;DHT22;20737;49.908;8.126;2023-05-10T15:17:36;21.00;99.90
34492;DHT22;20737;49.908;8.126;2023-05-10T15:20:05;20.80;99.90
34492;DHT22;20737;49.908;8.126;2023-05-10T15:22:32;20.90;99.90
34492;DHT22;20737;49.908;8.126;2023-05-10T15:24:59;20.70;99.90
34492;DHT22;20737;49.908;8.126;2023-05-10T15:27:27;21.10;99.90
34492;DHT22;20737;49.908;8.126;2023-05-10T15:29:53;21.50;99.90
34492;DHT22;20737;49.908;8.126;2023-05-10T15:32:20;21.70;99.30
34492;DHT22;20737;49.908;8.126;2023-05-10T15:34:47;21.80;97.80
34492;DHT22;20737;49.908;8.126;2023-05-10T15:37:15;21.50;99.10
34492;DHT22;20737;49.908;8.126;2023-05-10T15:39:42;21.40;98.50